Time;durP1;ratioP1;P1;durP2;ratioP2;P2;SDS_P1;SDS_P2;PMS_P1;PMS_P2;Temp;Humidity;BMP_temperature;BMP_pressure;BME280_temperature;BME280_humidity;BME280_pressure;Samples;Min_cycle;Max_cycle;Signal;HPM_P1;HPM_P2
2021/08/31 00:02:13;;;;;;;9.63;7.27;;;14.10;99.90;;;;;;5122520;27;20216;-46
2021/08/31 00:04:40;;;;;;;12.97;7.30;;;14.10;99.90;;;;;;5123094;27;20185;-47
2021/08/31 00:07:07;;;;;;;10.40;7.07;;;14.00;99.90;;;;;;5120811;27;20188;-48
2021/08/31 00:09:33;;;;;;;9.30;6.43;;;14.00;99.90;;;;;;5128506;27;20204;-45
2021/08/31 00:12:00;;;;;;;7.23;6.53;;;14.00;99.90;;;;;;5116846;27;20357;-47
2021/08/31 00:14:28;;;;;;;8.57;6.83;;;14.00;99.90;;;;;;5132658;27;20196;-48
2021/08/31 00:16:54;;;;;;;11.20;7.13;;;14.00;99.90;;;;;;5127726;27;20783;-45
2021/08/31 00:19:21;;;;;;;13.87;7.40;;;14.00;99.90;;;;;;5125651;27;20556;-51
2021/08/31 00:21:48;;;;;;;9.57;6.97;;;13.90;99.90;;;;;;5122176;27;20200;-49
2021/08/31 00:24:14;;;;;;;10.20;7.40;;;13.90;99.90;;;;;;5124982;27;20275;-47
2021/08/31 00:26:41;;;;;;;13.13;7.93;;;13.90;99.90;;;;;;5118117;27;20673;-45
2021/08/31 00:29:08;;;;;;;9.60;7.07;;;13.80;99.90;;;;;;5116108;27;20200;-47
2021/08/31 00:31:36;;;;;;;10.37;7.63;;;13.80;99.90;;;;;;5141427;27;20223;-49
2021/08/31 00:34:02;;;;;;;10.00;7.33;;;13.70;99.90;;;;;;5122308;27;20220;-49
2021/08/31 00:36:29;;;;;;;10.20;7.27;;;13.70;99.90;;;;;;5129267;27;20189;-46
2021/08/31 00:38:57;;;;;;;8.93;7.07;;;13.70;99.90;;;;;;5125173;27;20199;-46
2021/08/31 00:41:24;;;;;;;9.73;7.80;;;13.70;99.90;;;;;;5129653;27;20193;-50
2021/08/31 00:43:52;;;;;;;9.70;7.23;;;13.60;99.90;;;;;;5112573;27;20212;-45
2021/08/31 00:46:20;;;;;;;8.47;7.13;;;13.60;99.90;;;;;;5135249;27;20201;-46
2021/08/31 00:48:49;;;;;;;8.23;7.43;;;13.60;99.90;;;;;;5121922;27;20568;-46
2021/08/31 00:51:20;;;;;;;10.83;6.80;;;13.60;99.90;;;;;;5129156;27;20217;-46
2021/08/31 00:53:48;;;;;;;14.07;7.10;;;13.50;99.90;;;;;;5125968;27;20210;-45
2021/08/31 00:56:16;;;;;;;8.43;6.90;;;13.50;99.90;;;;;;5128613;27;20193;-48
2021/08/31 00:58:42;;;;;;;8.87;7.43;;;13.50;99.90;;;;;;5114726;27;20279;-50
2021/08/31 01:01:09;;;;;;;12.23;7.43;;;13.50;99.90;;;;;;5127515;27;20795;-50
2021/08/31 01:03:37;;;;;;;9.00;6.87;;;13.50;99.90;;;;;;5123591;27;20225;-47
2021/08/31 01:06:05;;;;;;;7.40;6.70;;;13.40;99.90;;;;;;5126101;27;20173;-46
2021/08/31 01:08:33;;;;;;;10.83;7.40;;;13.40;99.90;;;;;;5128768;27;20185;-45
2021/08/31 01:11:01;;;;;;;14.50;7.20;;;13.40;99.90;;;;;;5124563;27;20208;-50
2021/08/31 01:13:29;;;;;;;9.40;7.10;;;13.40;99.90;;;;;;5115268;27;20235;-48
2021/08/31 01:15:55;;;;;;;9.77;7.40;;;13.40;99.90;;;;;;5141146;27;20191;-48
2021/08/31 01:18:23;;;;;;;9.47;7.00;;;13.40;99.90;;;;;;5129090;27;20677;-46
2021/08/31 01:20:52;;;;;;;9.73;7.43;;;13.40;99.90;;;;;;5103588;27;20283;-47
2021/08/31 01:23:21;;;;;;;8.67;7.77;;;13.40;99.90;;;;;;5108063;28;20221;-46
2021/08/31 01:25:50;;;;;;;8.03;6.80;;;13.40;99.90;;;;;;5104724;28;20216;-50
2021/08/31 01:28:18;;;;;;;7.50;6.50;;;13.40;99.90;;;;;;5107957;28;20197;-47
2021/08/31 01:30:46;;;;;;;9.20;6.67;;;13.30;99.90;;;;;;5112774;27;20201;-48
2021/08/31 01:33:13;;;;;;;11.77;6.97;;;13.30;99.90;;;;;;5140885;27;20222;-50
2021/08/31 01:35:39;;;;;;;9.03;6.73;;;13.30;99.90;;;;;;5134443;27;20192;-50
2021/08/31 01:38:06;;;;;;;11.50;6.67;;;13.30;99.90;;;;;;5126246;27;20283;-49
2021/08/31 01:40:33;;;;;;;10.93;7.17;;;13.30;99.90;;;;;;5134371;27;20205;-46
2021/08/31 01:43:01;;;;;;;8.00;7.20;;;13.30;99.90;;;;;;5143749;27;20207;-48
2021/08/31 01:45:28;;;;;;;9.23;7.43;;;13.30;99.90;;;;;;5117198;27;20208;-45
2021/08/31 01:47:55;;;;;;;9.27;6.70;;;13.30;99.90;;;;;;5124049;27;20180;-45
2021/08/31 01:50:21;;;;;;;12.10;7.03;;;13.20;99.90;;;;;;5127781;27;20195;-47
2021/08/31 01:52:48;;;;;;;7.90;6.53;;;13.20;99.90;;;;;;5121087;27;20230;-45
2021/08/31 01:55:15;;;;;;;9.03;7.17;;;13.20;99.90;;;;;;5128151;27;20193;-47
2021/08/31 01:57:41;;;;;;;10.47;7.53;;;13.10;99.90;;;;;;5126139;27;20199;-49
2021/08/31 02:00:11;;;;;;;8.50;7.13;;;13.10;99.90;;;;;;5115303;27;20867;-49
2021/08/31 02:02:40;;;;;;;8.90;7.50;;;13.10;99.90;;;;;;5135130;27;20228;-47
2021/08/31 02:05:08;;;;;;;10.57;7.50;;;13.10;99.90;;;;;;5132400;27;20925;-45
2021/08/31 02:07:34;;;;;;;11.50;6.93;;;13.00;99.90;;;;;;5112447;27;20201;-49
2021/08/31 02:10:01;;;;;;;9.00;7.43;;;13.00;99.90;;;;;;5103725;28;20191;-46
2021/08/31 02:12:27;;;;;;;7.20;6.47;;;13.00;99.90;;;;;;5107751;28;20227;-49
2021/08/31 02:14:54;;;;;;;10.03;7.63;;;13.00;99.90;;;;;;5102978;27;20208;-47
2021/08/31 02:17:22;;;;;;;8.57;7.73;;;13.00;99.90;;;;;;5136499;27;20185;-52
2021/08/31 02:19:49;;;;;;;8.63;7.10;;;13.00;99.90;;;;;;5124423;27;20666;-47
2021/08/31 02:22:15;;;;;;;9.80;7.33;;;12.90;99.90;;;;;;5123282;27;20216;-48
2021/08/31 02:24:42;;;;;;;9.53;7.13;;;12.90;99.90;;;;;;5125950;27;20189;-45
2021/08/31 02:27:08;;;;;;;11.87;7.40;;;12.90;99.90;;;;;;5125986;27;20184;-50
2021/08/31 02:29:35;;;;;;;10.90;7.63;;;12.90;99.90;;;;;;5125326;27;20192;-47
2021/08/31 02:32:03;;;;;;;9.83;7.40;;;12.80;99.90;;;;;;5110881;27;20213;-46
2021/08/31 02:34:31;;;;;;;8.80;7.53;;;12.80;99.90;;;;;;5127567;27;20205;-48
2021/08/31 02:36:58;;;;;;;12.23;7.70;;;12.80;99.90;;;;;;5138058;27;20267;-46
2021/08/31 02:39:24;;;;;;;9.87;7.03;;;12.80;99.90;;;;;;5127959;27;20199;-48
2021/08/31 02:41:51;;;;;;;7.53;6.83;;;12.80;99.90;;;;;;5123929;27;20188;-46
2021/08/31 02:44:19;;;;;;;8.67;7.13;;;12.80;99.90;;;;;;5128035;27;20622;-47
2021/08/31 02:46:45;;;;;;;13.93;7.87;;;12.70;99.90;;;;;;5107848;27;20577;-45
2021/08/31 02:49:12;;;;;;;9.87;7.50;;;12.70;99.90;;;;;;5127247;27;20189;-51
2021/08/31 02:51:40;;;;;;;8.20;7.37;;;12.70;99.90;;;;;;5126765;27;20227;-50
2021/08/31 02:54:07;;;;;;;8.50;7.57;;;12.70;99.90;;;;;;5111687;27;20193;-50
2021/08/31 02:56:33;;;;;;;13.27;7.20;;;12.70;99.90;;;;;;5107533;28;20193;-47
2021/08/31 02:59:00;;;;;;;9.43;7.00;;;12.70;99.90;;;;;;5104811;28;20185;-52
2021/08/31 03:01:32;;;;;;;9.20;6.60;;;12.70;99.90;;;;;;5101034;27;20539;-47
2021/08/31 03:04:00;;;;;;;9.23;7.47;;;12.70;99.90;;;;;;5133123;27;20264;-48
2021/08/31 03:06:27;;;;;;;8.00;6.73;;;12.70;99.90;;;;;;5135139;27;20197;-45
2021/08/31 03:08:55;;;;;;;9.90;7.10;;;12.60;99.90;;;;;;5118810;27;20185;-49
2021/08/31 03:11:22;;;;;;;10.80;7.20;;;12.60;99.90;;;;;;5105247;28;20192;-47
2021/08/31 03:13:49;;;;;;;9.23;7.30;;;12.60;99.90;;;;;;5101953;28;20217;-46
2021/08/31 03:16:16;;;;;;;10.17;7.77;;;12.60;99.90;;;;;;5104361;27;20253;-45
2021/08/31 03:18:43;;;;;;;12.00;7.97;;;12.60;99.90;;;;;;5124232;27;20196;-45
2021/08/31 03:21:10;;;;;;;10.93;7.50;;;12.60;99.90;;;;;;5125175;27;20368;-46
2021/08/31 03:23:37;;;;;;;10.47;6.83;;;12.60;99.90;;;;;;5124901;27;20220;-47
2021/08/31 03:26:05;;;;;;;9.33;7.03;;;12.60;99.90;;;;;;5101573;27;20459;-50
2021/08/31 03:28:31;;;;;;;11.77;7.43;;;12.60;99.90;;;;;;5105307;28;20194;-46
2021/08/31 03:30:58;;;;;;;11.67;7.07;;;12.60;99.90;;;;;;5095324;27;20211;-46
2021/08/31 03:33:24;;;;;;;10.13;6.97;;;12.60;99.90;;;;;;5120341;27;20220;-49
2021/08/31 03:35:51;;;;;;;10.77;7.43;;;12.60;99.90;;;;;;5132074;27;20565;-46
2021/08/31 03:38:17;;;;;;;8.93;6.50;;;12.60;99.90;;;;;;5147730;27;20195;-50
2021/08/31 03:40:44;;;;;;;9.00;6.83;;;12.60;99.90;;;;;;5124547;27;20573;-46
2021/08/31 03:43:12;;;;;;;11.57;7.53;;;12.60;99.90;;;;;;5125385;27;20201;-47
2021/08/31 03:45:39;;;;;;;9.60;7.53;;;12.60;99.90;;;;;;5125612;27;20204;-51
2021/08/31 03:48:06;;;;;;;9.90;7.50;;;12.60;99.90;;;;;;5115552;27;20200;-49
2021/08/31 03:50:33;;;;;;;9.77;7.17;;;12.50;99.90;;;;;;5126707;27;20217;-47
2021/08/31 03:52:59;;;;;;;8.57;7.23;;;12.50;99.90;;;;;;5123913;27;20223;-49
2021/08/31 03:55:26;;;;;;;9.97;7.80;;;12.50;99.90;;;;;;5122604;27;20193;-46
2021/08/31 03:57:53;;;;;;;9.33;7.93;;;12.50;99.90;;;;;;5120932;27;20193;-46
2021/08/31 04:00:21;;;;;;;8.13;7.30;;;12.50;99.90;;;;;;5124747;27;20203;-47
2021/08/31 04:02:47;;;;;;;10.13;7.60;;;12.50;99.90;;;;;;5114496;27;20569;-47
2021/08/31 04:05:14;;;;;;;11.10;8.40;;;12.40;99.90;;;;;;5130812;27;20581;-48
2021/08/31 04:07:41;;;;;;;9.93;7.03;;;12.50;99.90;;;;;;5133614;27;20191;-47
2021/08/31 04:10:09;;;;;;;10.37;7.40;;;12.40;99.90;;;;;;5146722;27;20183;-46
2021/08/31 04:12:36;;;;;;;11.97;7.53;;;12.40;99.90;;;;;;5113768;27;20927;-46
2021/08/31 04:15:04;;;;;;;8.83;7.23;;;12.40;99.90;;;;;;5105050;28;20192;-46
2021/08/31 04:17:31;;;;;;;11.97;7.23;;;12.40;99.90;;;;;;5108314;28;20201;-45
2021/08/31 04:19:58;;;;;;;11.67;7.87;;;12.40;99.90;;;;;;5107366;27;20201;-48
2021/08/31 04:22:25;;;;;;;7.80;6.77;;;12.40;99.90;;;;;;5127878;27;20216;-47
2021/08/31 04:24:51;;;;;;;7.90;7.00;;;12.40;99.90;;;;;;5110060;27;20686;-46
2021/08/31 04:27:18;;;;;;;10.33;6.60;;;12.40;99.90;;;;;;5116648;27;20284;-46
2021/08/31 04:29:45;;;;;;;9.10;6.87;;;12.40;99.90;;;;;;5106107;27;20935;-47
2021/08/31 04:32:11;;;;;;;12.37;7.60;;;12.40;99.90;;;;;;5123708;27;20224;-46
2021/08/31 04:34:39;;;;;;;8.37;7.07;;;12.40;99.90;;;;;;5109392;27;20895;-46
2021/08/31 04:37:06;;;;;;;7.80;6.70;;;12.40;99.90;;;;;;5124938;27;20216;-46
2021/08/31 04:39:33;;;;;;;11.70;7.10;;;12.40;99.90;;;;;;5118542;27;20201;-44
2021/08/31 04:42:02;;;;;;;8.50;7.50;;;12.40;99.90;;;;;;5123986;27;20246;-46
2021/08/31 04:44:29;;;;;;;11.70;7.10;;;12.40;99.90;;;;;;5121293;27;20223;-46
2021/08/31 04:46:56;;;;;;;11.07;7.10;;;12.40;99.90;;;;;;5122365;27;20617;-47
2021/08/31 04:49:23;;;;;;;8.17;7.37;;;12.40;99.90;;;;;;5119937;27;20207;-45
2021/08/31 04:51:51;;;;;;;12.33;7.47;;;12.30;99.90;;;;;;5125950;27;20196;-49
2021/08/31 04:54:17;;;;;;;10.13;7.30;;;12.30;99.90;;;;;;5112424;27;20212;-46
2021/08/31 04:56:44;;;;;;;13.47;7.10;;;12.30;99.90;;;;;;5110361;27;20197;-48
2021/08/31 04:59:11;;;;;;;12.77;7.73;;;12.40;99.90;;;;;;5124690;27;20227;-46
2021/08/31 05:01:37;;;;;;;9.83;7.17;;;12.30;99.90;;;;;;5115881;27;20189;-46
2021/08/31 05:04:05;;;;;;;8.87;7.27;;;12.40;99.90;;;;;;5111819;27;20213;-45
2021/08/31 05:06:32;;;;;;;9.47;7.10;;;12.40;99.90;;;;;;5114901;27;20205;-48
2021/08/31 05:09:00;;;;;;;11.70;7.50;;;12.40;99.90;;;;;;5122549;27;20193;-47
2021/08/31 05:11:27;;;;;;;8.97;7.10;;;12.40;99.90;;;;;;5125956;27;20200;-46
2021/08/31 05:13:54;;;;;;;8.27;7.33;;;12.40;99.90;;;;;;5119231;27;20280;-48
2021/08/31 05:16:21;;;;;;;12.07;7.47;;;12.50;99.90;;;;;;5117392;27;20240;-49
2021/08/31 05:18:48;;;;;;;9.37;7.20;;;12.50;99.90;;;;;;5113566;27;20207;-47
2021/08/31 05:21:14;;;;;;;9.43;7.63;;;12.50;99.90;;;;;;5119186;27;20189;-49
2021/08/31 05:23:41;;;;;;;8.57;7.13;;;12.50;99.90;;;;;;5114633;27;20265;-46
2021/08/31 05:26:09;;;;;;;9.20;7.53;;;12.50;99.90;;;;;;5126805;27;20196;-48
2021/08/31 05:28:36;;;;;;;10.97;7.90;;;12.50;99.90;;;;;;5119014;27;20871;-47
2021/08/31 05:31:02;;;;;;;14.00;7.90;;;12.60;99.90;;;;;;5123133;27;20562;-46
2021/08/31 05:33:29;;;;;;;11.20;6.97;;;12.60;99.90;;;;;;5121588;27;20213;-47
2021/08/31 05:35:56;;;;;;;13.20;7.50;;;12.60;99.90;;;;;;5127157;27;20215;-48
2021/08/31 05:38:22;;;;;;;12.67;7.40;;;12.70;99.90;;;;;;5116512;27;20204;-44
2021/08/31 05:40:49;;;;;;;11.87;7.93;;;12.70;99.90;;;;;;5113923;27;20189;-45
2021/08/31 05:43:17;;;;;;;14.70;7.30;;;12.70;99.90;;;;;;5109329;27;20205;-45
2021/08/31 05:45:43;;;;;;;12.27;7.80;;;12.80;99.90;;;;;;5113303;27;20204;-49
2021/08/31 05:48:10;;;;;;;11.70;7.73;;;12.80;99.90;;;;;;5117348;27;20201;-48
2021/08/31 05:50:37;;;;;;;14.97;8.33;;;12.90;99.90;;;;;;5110119;27;20232;-46
2021/08/31 05:53:03;;;;;;;14.27;7.33;;;12.90;99.90;;;;;;5107434;27;20633;-46
2021/08/31 05:55:30;;;;;;;11.87;8.33;;;12.90;99.90;;;;;;5121302;27;20196;-46
2021/08/31 05:57:56;;;;;;;15.43;8.50;;;13.00;99.90;;;;;;5120827;27;20197;-47
2021/08/31 06:00:25;;;;;;;11.17;7.60;;;13.10;99.90;;;;;;5135995;27;20207;-48
2021/08/31 06:02:51;;;;;;;9.90;7.90;;;13.10;99.90;;;;;;5113230;27;20447;-51
2021/08/31 06:05:18;;;;;;;11.20;7.80;;;13.20;99.90;;;;;;5112974;27;20204;-46
2021/08/31 06:07:45;;;;;;;12.13;7.63;;;13.20;99.90;;;;;;5115071;27;20190;-46
2021/08/31 06:10:14;;;;;;;10.67;8.40;;;13.30;99.90;;;;;;5126735;27;20215;-46
2021/08/31 06:12:40;;;;;;;12.47;8.47;;;13.30;99.90;;;;;;5122027;27;20220;-46
2021/08/31 06:15:08;;;;;;;12.67;8.57;;;13.40;99.90;;;;;;5120728;27;20196;-47
2021/08/31 06:17:38;;;;;;;10.27;7.80;;;13.50;99.90;;;;;;5118847;27;20200;-48
2021/08/31 06:20:05;;;;;;;9.73;7.40;;;13.50;99.90;;;;;;5119204;27;20265;-48
2021/08/31 06:22:32;;;;;;;11.43;8.37;;;13.60;99.90;;;;;;5126667;27;20299;-45
2021/08/31 06:24:59;;;;;;;13.23;8.10;;;13.60;99.90;;;;;;5108482;27;20197;-48
2021/08/31 06:27:25;;;;;;;9.93;7.50;;;13.70;99.90;;;;;;5120140;27;20216;-49
2021/08/31 06:29:52;;;;;;;13.63;8.53;;;13.80;99.90;;;;;;5122688;27;20218;-50
2021/08/31 06:32:19;;;;;;;10.47;7.33;;;13.80;99.90;;;;;;5117710;27;20243;-49
2021/08/31 06:34:46;;;;;;;12.63;8.17;;;13.90;99.90;;;;;;5122477;27;20855;-45
2021/08/31 06:37:13;;;;;;;13.10;8.10;;;14.00;99.90;;;;;;5103639;28;20954;-47
2021/08/31 06:39:40;;;;;;;13.60;7.43;;;14.00;99.90;;;;;;5103020;27;20208;-50
2021/08/31 06:42:06;;;;;;;13.17;8.00;;;14.10;99.90;;;;;;5116200;27;20197;-48
2021/08/31 06:44:33;;;;;;;11.87;8.03;;;14.20;99.90;;;;;;5114432;27;20195;-47
2021/08/31 06:47:00;;;;;;;11.00;8.00;;;14.20;99.90;;;;;;5119839;27;20201;-49
2021/08/31 06:49:26;;;;;;;9.20;7.40;;;14.30;99.90;;;;;;5115860;27;20200;-49
2021/08/31 06:51:54;;;;;;;13.47;7.47;;;14.40;99.90;;;;;;5132927;27;20207;-45
2021/08/31 06:54:21;;;;;;;8.40;6.87;;;14.40;99.90;;;;;;5127205;27;20226;-47
2021/08/31 06:56:47;;;;;;;9.90;7.27;;;14.50;99.90;;;;;;5100943;27;20199;-46
2021/08/31 06:59:14;;;;;;;9.27;8.17;;;14.50;99.90;;;;;;5132259;27;20192;-52
2021/08/31 07:01:41;;;;;;;13.60;7.60;;;14.60;99.90;;;;;;5134548;27;20192;-48
2021/08/31 07:04:07;;;;;;;10.17;7.80;;;14.70;99.90;;;;;;5118703;27;20213;-48
2021/08/31 07:06:34;;;;;;;8.47;7.10;;;14.80;99.90;;;;;;5101856;27;20238;-46
2021/08/31 07:09:04;;;;;;;12.10;7.20;;;14.80;99.90;;;;;;5109946;27;20196;-46
2021/08/31 07:11:30;;;;;;;7.87;7.00;;;14.90;99.90;;;;;;5096506;27;20213;-48
2021/08/31 07:13:57;;;;;;;9.80;6.87;;;15.00;99.90;;;;;;5123360;27;20219;-50
2021/08/31 07:16:24;;;;;;;9.03;7.00;;;15.10;99.90;;;;;;5126773;27;20197;-48
2021/08/31 07:18:50;;;;;;;8.57;6.23;;;15.10;99.90;;;;;;5100231;27;20223;-46
2021/08/31 07:21:17;;;;;;;7.53;6.20;;;15.20;99.90;;;;;;5115762;27;20209;-46
2021/08/31 07:23:43;;;;;;;8.93;6.60;;;15.20;99.90;;;;;;5100992;27;20720;-45
2021/08/31 07:26:11;;;;;;;8.60;6.37;;;15.30;99.90;;;;;;5107716;27;20208;-51
2021/08/31 07:28:38;;;;;;;6.73;6.10;;;15.40;99.90;;;;;;5121574;27;20193;-47
2021/08/31 07:31:05;;;;;;;9.00;6.43;;;15.50;99.90;;;;;;5119651;27;20197;-47
2021/08/31 07:33:31;;;;;;;7.90;6.10;;;15.50;99.90;;;;;;5107363;27;20223;-48
2021/08/31 07:35:58;;;;;;;8.37;6.33;;;15.60;99.90;;;;;;5123751;27;20188;-47
2021/08/31 07:38:24;;;;;;;9.33;6.37;;;15.70;99.90;;;;;;5122182;27;20207;-51
2021/08/31 07:40:51;;;;;;;7.03;5.90;;;15.70;99.90;;;;;;5102330;27;20201;-46
2021/08/31 07:43:19;;;;;;;6.77;5.50;;;15.80;99.90;;;;;;5125447;27;20213;-46
2021/08/31 07:45:46;;;;;;;7.57;6.23;;;15.90;99.90;;;;;;5118460;27;20790;-49
2021/08/31 07:48:13;;;;;;;7.10;5.40;;;16.00;99.90;;;;;;5128697;27;20196;-49
2021/08/31 07:50:41;;;;;;;6.00;5.30;;;16.00;99.90;;;;;;5114055;27;20662;-45
2021/08/31 07:53:08;;;;;;;6.43;4.93;;;16.10;99.90;;;;;;5118092;27;20247;-48
2021/08/31 07:55:34;;;;;;;6.13;5.00;;;16.20;99.90;;;;;;5116779;27;20208;-49
2021/08/31 07:58:01;;;;;;;6.47;5.10;;;16.30;99.90;;;;;;5114030;27;20203;-48
2021/08/31 08:00:29;;;;;;;10.03;5.27;;;16.40;99.90;;;;;;5117288;27;20209;-48
2021/08/31 08:02:56;;;;;;;6.27;4.97;;;16.50;99.90;;;;;;5118666;27;20685;-45
2021/08/31 08:05:23;;;;;;;7.60;4.70;;;16.60;99.90;;;;;;5114704;27;20208;-46
2021/08/31 08:07:49;;;;;;;9.00;5.43;;;16.70;99.90;;;;;;5127405;27;20195;-48
2021/08/31 08:10:16;;;;;;;7.20;4.70;;;16.80;99.90;;;;;;5114246;27;20198;-48
2021/08/31 08:12:42;;;;;;;5.60;4.87;;;16.80;99.90;;;;;;5114853;27;20221;-47
2021/08/31 08:15:10;;;;;;;4.33;3.93;;;16.90;99.90;;;;;;5127965;27;20212;-47
2021/08/31 08:17:38;;;;;;;6.37;4.80;;;17.00;99.90;;;;;;5126200;27;20192;-48
2021/08/31 08:20:08;;;;;;;6.07;4.47;;;17.10;99.90;;;;;;5120081;27;20201;-48
2021/08/31 08:22:34;;;;;;;7.47;4.63;;;17.20;99.90;;;;;;5114969;27;20217;-49
2021/08/31 08:25:01;;;;;;;5.00;4.50;;;17.30;99.90;;;;;;5116863;27;20189;-53
2021/08/31 08:27:27;;;;;;;4.63;4.23;;;17.40;99.90;;;;;;5100565;27;20189;-47
2021/08/31 08:29:54;;;;;;;4.77;4.07;;;17.50;99.90;;;;;;5105364;27;20215;-46
2021/08/31 08:32:21;;;;;;;6.40;4.07;;;17.50;99.90;;;;;;5125379;27;20227;-47
2021/08/31 08:34:48;;;;;;;5.10;4.10;;;17.60;99.90;;;;;;5122809;27;20220;-48
2021/08/31 08:37:15;;;;;;;4.57;4.07;;;17.70;99.90;;;;;;5101613;27;20215;-49
2021/08/31 08:39:42;;;;;;;4.40;3.70;;;17.80;99.90;;;;;;5122732;27;20189;-50
2021/08/31 08:42:09;;;;;;;5.27;3.90;;;17.80;99.90;;;;;;5101539;27;20225;-50
2021/08/31 08:44:36;;;;;;;4.73;4.03;;;17.90;99.90;;;;;;5112832;27;20605;-51
2021/08/31 08:47:03;;;;;;;4.60;3.97;;;18.00;99.90;;;;;;5124018;27;20276;-47
2021/08/31 08:49:30;;;;;;;6.57;4.40;;;18.10;99.90;;;;;;5132820;27;20816;-47
2021/08/31 08:52:00;;;;;;;4.40;3.77;;;18.20;99.90;;;;;;5120273;27;20204;-46
2021/08/31 08:54:28;;;;;;;5.03;3.77;;;18.20;99.90;;;;;;5118448;27;20243;-48
2021/08/31 08:56:55;;;;;;;6.03;4.20;;;18.20;99.90;;;;;;5114771;27;20204;-45
2021/08/31 08:59:23;;;;;;;4.70;3.93;;;18.20;99.90;;;;;;5105291;27;20208;-46
2021/08/31 09:01:51;;;;;;;6.60;3.60;;;18.30;99.90;;;;;;5124686;27;20204;-49
2021/08/31 09:04:20;;;;;;;4.67;3.67;;;18.40;99.90;;;;;;5125914;27;20196;-46
2021/08/31 09:06:47;;;;;;;4.93;3.93;;;18.50;99.90;;;;;;5119618;27;20245;-46
2021/08/31 09:09:15;;;;;;;5.07;3.70;;;18.50;99.90;;;;;;5115447;27;20840;-45
2021/08/31 09:11:46;;;;;;;7.30;3.97;;;18.60;99.90;;;;;;5118062;27;20570;-44
2021/08/31 09:14:19;;;;;;;7.30;4.07;;;18.60;99.90;;;;;;5110761;27;20212;-45
2021/08/31 09:16:47;;;;;;;6.10;3.90;;;18.70;99.90;;;;;;5118208;27;20291;-49
2021/08/31 09:19:14;;;;;;;4.40;3.97;;;18.70;99.90;;;;;;5116468;27;20208;-44
2021/08/31 09:21:41;;;;;;;4.03;3.60;;;18.70;99.90;;;;;;5118509;27;20571;-44
2021/08/31 09:24:11;;;;;;;5.50;3.70;;;18.80;99.90;;;;;;5118396;27;20283;-44
2021/08/31 09:26:41;;;;;;;5.33;3.47;;;18.80;99.90;;;;;;5115649;27;20216;-47
2021/08/31 09:29:14;;;;;;;6.40;3.37;;;18.90;99.90;;;;;;5129474;27;20188;-43
2021/08/31 09:31:51;;;;;;;4.00;3.70;;;19.00;99.90;;;;;;5109075;27;20541;-45
2021/08/31 09:34:40;;;;;;;3.63;3.33;;;19.00;99.90;;;;;;5122324;27;20224;-48
2021/08/31 09:37:32;;;;;;;4.57;3.30;;;19.00;99.90;;;;;;5103959;27;20584;-43
2021/08/31 09:40:10;;;;;;;3.50;3.20;;;19.00;99.90;;;;;;5115458;27;20207;-44
2021/08/31 09:42:56;;;;;;;6.57;3.83;;;19.10;99.90;;;;;;5113034;27;20212;-46
2021/08/31 09:45:25;;;;;;;3.87;3.57;;;19.20;99.90;;;;;;5099701;27;20476;-48
2021/08/31 09:47:53;;;;;;;3.73;3.30;;;19.30;99.90;;;;;;5121646;27;20193;-43
2021/08/31 09:50:31;;;;;;;5.83;3.67;;;19.30;99.90;;;;;;5111376;27;20752;-47
2021/08/31 09:53:06;;;;;;;4.00;3.57;;;19.30;99.90;;;;;;5112825;27;20784;-48
2021/08/31 09:55:33;;;;;;;4.27;3.27;;;19.40;99.90;;;;;;5130090;27;20211;-45
2021/08/31 09:58:13;;;;;;;7.80;4.10;;;19.50;99.90;;;;;;5108435;27;20200;-45
2021/08/31 10:00:40;;;;;;;4.60;3.87;;;19.50;99.90;;;;;;5123386;27;20196;-46
2021/08/31 10:03:07;;;;;;;5.80;3.60;;;19.50;99.90;;;;;;5112417;27;20296;-44
2021/08/31 10:05:35;;;;;;;4.63;4.03;;;19.50;99.90;;;;;;5119110;27;20208;-46
2021/08/31 10:08:03;;;;;;;4.93;4.17;;;19.50;99.90;;;;;;5114950;27;20269;-47
2021/08/31 10:10:30;;;;;;;5.10;3.60;;;19.60;99.90;;;;;;5118239;27;20938;-46
2021/08/31 10:12:58;;;;;;;4.20;3.70;;;19.60;99.90;;;;;;5114398;27;20223;-47
2021/08/31 10:15:26;;;;;;;4.40;3.73;;;19.70;99.90;;;;;;5102779;27;20215;-46
2021/08/31 10:17:53;;;;;;;5.10;3.80;;;19.70;99.90;;;;;;5109221;27;20197;-47
2021/08/31 10:20:23;;;;;;;4.20;3.60;;;19.80;99.90;;;;;;5114180;27;20204;-47
2021/08/31 10:22:50;;;;;;;4.83;3.60;;;19.90;99.90;;;;;;5111450;27;20737;-51
2021/08/31 10:25:22;;;;;;;3.80;3.50;;;20.10;99.90;;;;;;5121556;27;20186;-49
2021/08/31 10:27:49;;;;;;;4.53;4.00;;;20.10;99.90;;;;;;5112363;27;20194;-45
2021/08/31 10:30:37;;;;;;;4.33;3.80;;;20.00;99.90;;;;;;5115099;27;20786;-50
2021/08/31 10:33:20;;;;;;;4.00;3.60;;;20.00;99.90;;;;;;5105879;27;20227;-47
2021/08/31 10:35:57;;;;;;;4.20;3.80;;;19.90;99.90;;;;;;5120674;27;20204;-48
2021/08/31 10:38:54;;;;;;;6.83;3.87;;;19.90;99.90;;;;;;5098164;27;20244;-46
2021/08/31 10:41:45;;;;;;;4.37;3.70;;;19.90;99.90;;;;;;5107467;27;20338;-51
2021/08/31 10:44:14;;;;;;;5.93;3.37;;;19.90;99.90;;;;;;5106528;27;20188;-49
2021/08/31 10:47:21;;;;;;;4.80;3.90;;;19.90;99.90;;;;;;5108629;27;20189;-50
2021/08/31 10:50:23;;;;;;;3.70;3.30;;;19.90;99.90;;;;;;5116773;27;20214;-46
2021/08/31 10:53:02;;;;;;;3.97;3.67;;;19.90;99.90;;;;;;5108649;27;20296;-45
2021/08/31 10:55:34;;;;;;;5.20;4.00;;;20.10;99.90;;;;;;5111617;27;20280;-45
2021/08/31 10:58:02;;;;;;;6.43;3.67;;;20.20;99.90;;;;;;5114101;27;20201;-47
2021/08/31 11:00:54;;;;;;;4.53;3.90;;;20.40;99.90;;;;;;5112288;27;20192;-48
2021/08/31 11:03:34;;;;;;;7.77;4.30;;;20.40;99.90;;;;;;5095552;27;20498;-49
2021/08/31 11:06:25;;;;;;;5.83;4.00;;;20.50;99.90;;;;;;5121035;27;20189;-46
2021/08/31 11:09:29;;;;;;;4.73;3.37;;;20.40;99.90;;;;;;5109442;27;20197;-48
2021/08/31 11:12:07;;;;;;;4.77;3.80;;;20.40;99.90;;;;;;5121743;27;20208;-47
2021/08/31 11:14:40;;;;;;;5.17;3.43;;;20.50;99.90;;;;;;5112984;27;20200;-47
2021/08/31 11:17:07;;;;;;;4.30;3.80;;;20.60;99.90;;;;;;5111857;27;20197;-47
2021/08/31 11:19:33;;;;;;;4.63;3.57;;;20.70;99.90;;;;;;5110521;27;20201;-48
2021/08/31 11:22:01;;;;;;;4.88;3.80;;;20.70;99.90;;;;;;5116052;27;20204;-44
2021/08/31 11:24:28;;;;;;;6.28;4.00;;;20.80;99.90;;;;;;5121476;27;20181;-52
2021/08/31 11:27:00;;;;;;;5.70;3.83;;;20.90;99.90;;;;;;5116676;27;20203;-47
2021/08/31 11:29:27;;;;;;;4.77;3.90;;;20.90;99.90;;;;;;5108090;27;20197;-46
2021/08/31 11:32:02;;;;;;;3.73;3.43;;;20.80;99.90;;;;;;5113624;27;20205;-46
2021/08/31 11:34:28;;;;;;;6.07;3.97;;;20.70;99.90;;;;;;5109998;27;20265;-52
2021/08/31 11:37:05;;;;;;;3.90;3.60;;;20.50;99.90;;;;;;5125419;27;20250;-48
2021/08/31 11:39:32;;;;;;;6.63;3.93;;;20.40;99.90;;;;;;5099568;27;20283;-46
2021/08/31 11:41:59;;;;;;;4.73;3.60;;;20.30;99.90;;;;;;5111683;27;20203;-47
2021/08/31 11:44:25;;;;;;;4.07;3.67;;;20.40;99.90;;;;;;5123694;27;20205;-50
2021/08/31 11:46:53;;;;;;;5.67;3.77;;;20.40;99.90;;;;;;5111854;27;20245;-47
2021/08/31 11:49:22;;;;;;;4.47;3.90;;;20.60;99.90;;;;;;5117400;27;20204;-48
2021/08/31 11:52:06;;;;;;;3.90;3.60;;;20.70;99.90;;;;;;5113750;27;20192;-51
2021/08/31 11:54:35;;;;;;;6.10;4.00;;;20.90;99.90;;;;;;5110279;27;20217;-47
2021/08/31 11:57:04;;;;;;;3.80;3.50;;;20.90;99.90;;;;;;5109626;27;20196;-51
2021/08/31 11:59:35;;;;;;;3.87;3.47;;;21.00;99.90;;;;;;5116799;28;20265;-45
2021/08/31 12:02:11;;;;;;;6.70;4.18;;;20.80;99.90;;;;;;5113103;27;20287;-47
2021/08/31 12:04:38;;;;;;;4.95;4.05;;;20.80;99.90;;;;;;5098282;27;20805;-45
2021/08/31 12:07:08;;;;;;;4.97;3.90;;;20.90;99.90;;;;;;5110129;27;20198;-49
2021/08/31 12:09:37;;;;;;;4.53;3.80;;;21.10;99.90;;;;;;5109929;27;20192;-46
2021/08/31 12:12:05;;;;;;;4.00;3.60;;;21.10;99.90;;;;;;5110160;27;20197;-48
2021/08/31 12:14:31;;;;;;;3.53;3.20;;;21.10;99.90;;;;;;5123537;27;20220;-45
2021/08/31 12:16:58;;;;;;;4.00;3.70;;;20.90;99.90;;;;;;5107455;27;20201;-46
2021/08/31 12:19:25;;;;;;;4.13;3.75;;;20.80;99.90;;;;;;5112388;27;20196;-46
2021/08/31 12:22:08;;;;;;;4.65;4.03;;;20.70;99.90;;;;;;5115216;27;20420;-47
2021/08/31 12:24:36;;;;;;;3.70;3.40;;;20.80;99.90;;;;;;5121293;27;20654;-46
2021/08/31 12:27:07;;;;;;;5.68;3.55;;;20.90;99.90;;;;;;5106575;27;20209;-48
2021/08/31 12:29:52;;;;;;;5.72;3.50;;;21.00;99.90;;;;;;5119757;27;20201;-45
2021/08/31 12:32:24;;;;;;;8.07;4.18;;;21.10;99.90;;;;;;5112483;27;20307;-51
2021/08/31 12:34:52;;;;;;;4.68;3.63;;;21.20;99.90;;;;;;5114787;27;20232;-48
2021/08/31 12:37:30;;;;;;;4.40;3.58;;;21.30;99.90;;;;;;5104538;27;20196;-49
2021/08/31 12:40:14;;;;;;;4.63;4.00;;;21.40;99.90;;;;;;5117085;27;20279;-49
2021/08/31 12:42:41;;;;;;;4.97;3.67;;;21.50;99.90;;;;;;5116220;27;20262;-45
2021/08/31 12:45:10;;;;;;;4.13;3.72;;;21.40;99.90;;;;;;5109285;27;20209;-48
2021/08/31 12:47:37;;;;;;;6.00;4.00;;;21.30;99.90;;;;;;5119206;27;20204;-48
2021/08/31 12:50:09;;;;;;;5.63;3.58;;;21.20;99.90;;;;;;5106452;27;20196;-46
2021/08/31 12:52:38;;;;;;;4.60;3.83;;;21.20;99.90;;;;;;5110733;27;20211;-47